Time;durP1;ratioP1;P1;durP2;ratioP2;P2;SDS_P1;SDS_P2;PMS_P1;PMS_P2;Temp;Humidity;BMP_temperature;BMP_pressure;BME280_temperature;BME280_humidity;BME280_pressure;Samples;Min_cycle;Max_cycle;Signal;HPM_P1;HPM_P2
2023/08/05 00:01:40;;;;;;;8.90;4.45;;;15.30;99.90;;;;;;6167157;23;20020;-89
2023/08/05 00:04:06;;;;;;;9.60;4.25;;;15.30;99.90;;;;;;6143495;23;20044;-89
2023/08/05 00:06:35;;;;;;;8.77;4.10;;;15.30;99.90;;;;;;6167162;23;20386;-89
2023/08/05 00:09:03;;;;;;;7.15;4.25;;;15.30;99.90;;;;;;6167648;23;20015;-89
2023/08/05 00:11:29;;;;;;;9.40;4.90;;;15.30;99.90;;;;;;6192115;23;20040;-89
2023/08/05 00:14:09;;;;;;;7.85;4.40;;;15.20;99.90;;;;;;6166084;23;20076;-91
2023/08/05 00:16:49;;;;;;;10.38;4.72;;;15.20;99.90;;;;;;6145049;23;20005;-91
2023/08/05 00:19:19;;;;;;;7.45;4.32;;;15.10;99.90;;;;;;6169220;23;20033;-89
2023/08/05 00:22:01;;;;;;;9.00;4.78;;;15.10;99.90;;;;;;6195549;23;20016;-89
2023/08/05 00:24:30;;;;;;;10.38;5.78;;;15.10;99.90;;;;;;6192218;23;20059;-89
2023/08/05 00:27:06;;;;;;;10.52;5.40;;;15.10;99.90;;;;;;6171029;23;20091;-89
2023/08/05 00:29:46;;;;;;;9.13;5.80;;;15.00;99.90;;;;;;6148827;23;20012;-90
2023/08/05 00:32:17;;;;;;;9.52;5.68;;;15.00;99.90;;;;;;6169497;23;20004;-89
2023/08/05 00:34:46;;;;;;;8.60;4.88;;;15.00;99.90;;;;;;6143293;23;20031;-89
2023/08/05 00:37:16;;;;;;;8.60;5.10;;;15.00;99.90;;;;;;6122598;23;20016;-89
2023/08/05 00:39:47;;;;;;;10.05;5.80;;;14.90;99.90;;;;;;6192579;23;20019;-89
2023/08/05 00:42:37;;;;;;;9.00;5.35;;;14.90;99.90;;;;;;6195359;23;20308;-88
2023/08/05 00:45:14;;;;;;;;;;;;;;;;;;;;;
2023/08/05 00:47:41;;;;;;;9.77;5.80;;;14.90;99.90;;;;;;6189504;23;20009;-89
2023/08/05 00:50:12;;;;;;;9.45;5.63;;;14.90;99.90;;;;;;6191725;23;20066;-89
2023/08/05 00:52:50;;;;;;;12.25;6.03;;;14.90;99.90;;;;;;6193701;23;20051;-89
2023/08/05 00:55:24;;;;;;;13.95;5.50;;;14.90;99.90;;;;;;6192509;23;20009;-89
2023/08/05 00:58:02;;;;;;;10.20;5.65;;;14.80;99.90;;;;;;6173153;23;20001;-89
2023/08/05 01:00:29;;;;;;;12.77;6.35;;;15.00;99.90;;;;;;6124883;23;20400;-89
2023/08/05 01:02:59;;;;;;;11.18;5.82;;;14.90;99.90;;;;;;6198964;23;20019;-91
2023/08/05 01:05:26;;;;;;;14.57;6.15;;;14.90;99.90;;;;;;6173749;23;20016;-90
2023/08/05 01:08:03;;;;;;;8.90;5.43;;;14.90;99.90;;;;;;6174412;23;20012;-88
2023/08/05 01:10:35;;;;;;;14.05;6.13;;;14.90;99.90;;;;;;6199040;23;20095;-89
2023/08/05 01:13:08;;;;;;;11.38;5.70;;;14.90;99.90;;;;;;6172443;23;20077;-89
2023/08/05 01:15:44;;;;;;;10.73;5.18;;;14.90;99.90;;;;;;6198589;23;20011;-90
2023/08/05 01:18:27;;;;;;;9.27;5.20;;;14.90;99.90;;;;;;6198972;23;20012;-88
2023/08/05 01:21:05;;;;;;;13.38;5.45;;;14.90;99.90;;;;;;6174384;23;20054;-89
2023/08/05 01:23:50;;;;;;;12.07;5.10;;;15.00;99.90;;;;;;6199052;23;20011;-91
2023/08/05 01:26:21;;;;;;;11.63;5.13;;;15.00;99.90;;;;;;6198425;23;20016;-89
2023/08/05 01:28:58;;;;;;;9.65;4.78;;;15.00;99.90;;;;;;6200407;23;20375;-88
2023/08/05 01:31:31;;;;;;;8.80;5.03;;;15.00;99.90;;;;;;6197984;23;20103;-91
2023/08/05 01:34:00;;;;;;;9.10;4.80;;;15.00;99.90;;;;;;6173396;23;20066;-89
2023/08/05 01:36:27;;;;;;;9.10;4.72;;;15.00;99.90;;;;;;6173167;23;20012;-89
2023/08/05 01:38:55;;;;;;;11.57;5.28;;;15.00;99.90;;;;;;6149669;23;20392;-89
2023/08/05 01:41:24;;;;;;;8.70;4.70;;;15.00;99.90;;;;;;6198442;23;20289;-89
2023/08/05 01:43:50;;;;;;;10.52;5.03;;;15.00;99.90;;;;;;6173524;23;20012;-89
2023/08/05 01:46:20;;;;;;;10.30;5.10;;;15.00;99.90;;;;;;6223997;23;20008;-89
2023/08/05 01:48:47;;;;;;;10.15;5.40;;;15.10;99.90;;;;;;6173239;23;20477;-89
2023/08/05 01:51:17;;;;;;;13.88;5.03;;;15.00;99.90;;;;;;6174268;23;20035;-90
2023/08/05 01:53:43;;;;;;;8.18;4.72;;;15.10;99.90;;;;;;6147164;23;20385;-89
2023/08/05 01:56:11;;;;;;;11.68;4.90;;;15.10;99.90;;;;;;6173914;23;20004;-90
2023/08/05 01:58:42;;;;;;;11.30;5.00;;;15.10;99.90;;;;;;6173840;23;20008;-89
2023/08/05 02:01:11;;;;;;;11.48;5.68;;;15.10;99.90;;;;;;6198153;23;20020;-88
2023/08/05 02:03:43;;;;;;;12.98;5.82;;;15.10;99.90;;;;;;6175081;23;20015;-88
2023/08/05 02:06:14;;;;;;;9.13;4.65;;;15.20;99.90;;;;;;6173671;23;20004;-88
2023/08/05 02:08:51;;;;;;;9.05;4.35;;;15.20;99.90;;;;;;6175342;23;20008;-89
2023/08/05 02:11:23;;;;;;;9.32;4.57;;;15.20;99.90;;;;;;6174033;23;20019;-90
2023/08/05 02:13:52;;;;;;;14.43;4.50;;;15.20;99.90;;;;;;6173003;23;20004;-89
2023/08/05 02:16:22;;;;;;;9.55;4.70;;;15.20;99.90;;;;;;6174217;23;20010;-89
2023/08/05 02:18:52;;;;;;;11.95;4.35;;;15.20;99.90;;;;;;6172184;23;20087;-90
2023/08/05 02:21:24;;;;;;;9.45;4.47;;;15.20;99.90;;;;;;6172709;23;20051;-89
2023/08/05 02:23:52;;;;;;;10.25;4.10;;;15.20;99.90;;;;;;6172599;23;20012;-88
2023/08/05 02:26:24;;;;;;;7.40;4.20;;;15.30;99.90;;;;;;6173072;23;20004;-89
2023/08/05 02:28:53;;;;;;;8.15;3.70;;;15.30;99.90;;;;;;6198234;23;20004;-88
2023/08/05 02:31:19;;;;;;;8.57;4.30;;;15.30;99.90;;;;;;6173067;23;20008;-89
2023/08/05 02:33:47;;;;;;;8.93;4.75;;;15.30;99.90;;;;;;6173952;23;20039;-88
2023/08/05 02:36:16;;;;;;;11.48;4.80;;;15.30;99.90;;;;;;6198224;23;20018;-90
2023/08/05 02:38:42;;;;;;;9.73;4.70;;;15.30;99.90;;;;;;6173261;23;20270;-88
2023/08/05 02:41:09;;;;;;;10.88;4.65;;;15.30;99.90;;;;;;6148473;23;20393;-90
2023/08/05 02:43:37;;;;;;;9.73;4.60;;;15.30;99.90;;;;;;6173108;23;20463;-90
2023/08/05 02:46:04;;;;;;;8.70;4.30;;;15.30;99.90;;;;;;6173944;23;20445;-89
2023/08/05 02:48:30;;;;;;;9.32;4.60;;;15.30;99.90;;;;;;6198392;23;20007;-89
2023/08/05 02:51:00;;;;;;;11.73;4.43;;;15.40;99.90;;;;;;6174256;23;20009;-89
2023/08/05 02:53:31;;;;;;;10.15;4.53;;;15.40;99.90;;;;;;6223570;23;20000;-88
2023/08/05 02:55:57;;;;;;;10.48;4.35;;;15.40;99.90;;;;;;6148429;23;20015;-89
2023/08/05 02:58:31;;;;;;;9.02;4.20;;;15.40;99.90;;;;;;6198246;23;20432;-90
2023/08/05 03:01:10;;;;;;;9.75;4.10;;;15.40;99.90;;;;;;6189094;23;20024;-90
2023/08/05 03:03:39;;;;;;;10.00;4.57;;;15.40;99.90;;;;;;6192129;23;20005;-89
2023/08/05 03:06:10;;;;;;;11.23;5.07;;;15.40;99.90;;;;;;6168176;23;20051;-89
2023/08/05 03:08:37;;;;;;;11.80;3.78;;;15.40;99.90;;;;;;6167624;23;20317;-90
2023/08/05 03:11:03;;;;;;;8.55;4.00;;;15.40;99.90;;;;;;6167648;23;20020;-90
2023/08/05 03:13:33;;;;;;;7.95;3.97;;;15.50;99.90;;;;;;6168433;23;20054;-90
2023/08/05 03:16:16;;;;;;;8.15;3.70;;;15.50;99.90;;;;;;6193553;23;20252;-89
2023/08/05 03:18:52;;;;;;;8.40;4.25;;;15.50;99.90;;;;;;6169998;23;20013;-89
2023/08/05 03:21:30;;;;;;;9.05;3.72;;;15.50;99.90;;;;;;6217614;23;20000;-88
2023/08/05 03:23:58;;;;;;;8.77;4.57;;;15.50;99.90;;;;;;6167143;23;20382;-89
2023/08/05 03:26:26;;;;;;;11.45;4.40;;;15.50;99.90;;;;;;6167834;23;20088;-89
2023/08/05 03:28:55;;;;;;;8.65;4.60;;;15.50;99.90;;;;;;6193039;23;20789;-89
2023/08/05 03:31:22;;;;;;;9.68;4.35;;;15.50;99.90;;;;;;6192579;23;20088;-88
2023/08/05 03:33:57;;;;;;;9.73;4.88;;;15.50;99.90;;;;;;6169299;23;20017;-89
2023/08/05 03:36:28;;;;;;;10.27;5.07;;;15.40;99.90;;;;;;6193942;23;20004;-89
2023/08/05 03:39:00;;;;;;;12.73;4.95;;;15.50;99.90;;;;;;6143001;23;20271;-88
2023/08/05 03:41:34;;;;;;;10.95;4.93;;;15.50;99.90;;;;;;6192760;23;20007;-89
2023/08/05 03:44:09;;;;;;;11.60;5.25;;;15.40;99.90;;;;;;6217095;23;20005;-89
2023/08/05 03:46:37;;;;;;;9.77;5.55;;;15.40;99.90;;;;;;6189815;23;20466;-89
2023/08/05 03:49:06;;;;;;;10.73;6.10;;;15.40;99.90;;;;;;6167155;23;20009;-89
2023/08/05 03:51:35;;;;;;;9.63;5.78;;;15.40;99.90;;;;;;6192716;23;20378;-89
2023/08/05 03:54:10;;;;;;;9.90;5.53;;;15.40;99.90;;;;;;6191871;23;20004;-89
2023/08/05 03:56:48;;;;;;;;;;;15.40;99.90;;;;;;6193837;23;20008;-89
2023/08/05 03:59:17;;;;;;;9.13;5.80;;;15.40;99.90;;;;;;6192828;23;19904;-88
2023/08/05 04:01:44;;;;;;;11.93;5.90;;;15.30;99.90;;;;;;6167277;23;20119;-90
2023/08/05 04:04:10;;;;;;;10.18;5.72;;;15.30;99.90;;;;;;6167304;23;20227;-90
2023/08/05 04:06:39;;;;;;;9.60;5.85;;;15.30;99.90;;;;;;6191818;23;20017;-92
2023/08/05 04:09:10;;;;;;;16.70;6.75;;;15.30;99.90;;;;;;6192494;23;20080;-89
2023/08/05 04:11:37;;;;;;;12.32;6.07;;;15.30;99.90;;;;;;6164950;23;20009;-89
2023/08/05 04:14:06;;;;;;;11.25;5.28;;;15.30;99.90;;;;;;6167881;23;20007;-89
2023/08/05 04:16:43;;;;;;;9.48;5.68;;;15.30;99.90;;;;;;6192706;23;20400;-89
2023/08/05 04:19:18;;;;;;;10.57;5.38;;;15.30;99.90;;;;;;6192136;23;20031;-89
2023/08/05 04:21:52;;;;;;;8.67;5.03;;;15.30;99.90;;;;;;6191860;23;20092;-88
2023/08/05 04:24:24;;;;;;;11.50;5.32;;;15.30;99.90;;;;;;6161509;23;20269;-89
2023/08/05 04:26:50;;;;;;;10.88;5.15;;;15.40;99.90;;;;;;6167357;23;20071;-89
2023/08/05 04:29:22;;;;;;;12.60;5.70;;;15.40;99.90;;;;;;6191768;23;20013;-90
2023/08/05 04:31:54;;;;;;;10.70;4.75;;;15.40;99.90;;;;;;6144943;23;20087;-90
2023/08/05 04:34:38;;;;;;;11.18;5.10;;;15.30;99.90;;;;;;6170180;23;20095;-89
2023/08/05 04:37:19;;;;;;;14.43;4.90;;;15.40;99.90;;;;;;6193177;23;20008;-89
2023/08/05 04:39:45;;;;;;;8.52;4.43;;;15.40;99.90;;;;;;6218773;23;20008;-89
2023/08/05 04:42:13;;;;;;;12.48;5.10;;;15.40;99.90;;;;;;6193586;23;20458;-88
2023/08/05 04:44:40;;;;;;;8.80;4.57;;;15.40;99.90;;;;;;6193521;23;20074;-89
2023/08/05 04:47:10;;;;;;;7.88;4.22;;;15.40;99.90;;;;;;6193495;23;20011;-88
2023/08/05 04:49:41;;;;;;;11.30;5.38;;;15.40;99.90;;;;;;6194936;23;20417;-89
2023/08/05 04:52:10;;;;;;;14.20;6.03;;;15.40;99.90;;;;;;6169513;23;20005;-90
2023/08/05 04:54:41;;;;;;;11.43;5.78;;;15.40;99.90;;;;;;6169598;23;20028;-89
2023/08/05 04:57:12;;;;;;;13.10;5.88;;;15.50;99.90;;;;;;6194576;23;20009;-88
2023/08/05 04:59:41;;;;;;;9.70;4.97;;;15.50;99.90;;;;;;6165769;23;20005;-89
2023/08/05 05:02:17;;;;;;;10.43;5.40;;;15.40;99.90;;;;;;6218010;23;20040;-88
2023/08/05 05:05:25;;;;;;;9.55;5.00;;;15.50;99.90;;;;;;6176870;23;20078;-90
2023/08/05 05:07:53;;;;;;;8.68;4.70;;;15.50;99.90;;;;;;6193222;23;20020;-88
2023/08/05 05:10:38;;;;;;;8.65;4.30;;;15.50;99.90;;;;;;6194513;23;20043;-88
2023/08/05 05:13:06;;;;;;;10.40;4.60;;;15.50;99.90;;;;;;6168024;23;20008;-87
2023/08/05 05:15:33;;;;;;;7.47;3.85;;;15.50;99.90;;;;;;6168270;23;20005;-88
2023/08/05 05:18:30;;;;;;;;;;;;;;;;;;;;;
2023/08/05 05:22:12;;;;;;;;;;;;;;;;;;;;;
2023/08/05 05:25:10;;;;;;;10.13;4.30;;;15.60;99.90;;;;;;6203123;23;20013;-88
2023/08/05 05:27:38;;;;;;;8.10;4.25;;;15.60;99.90;;;;;;6193430;23;20005;-89
2023/08/05 05:30:06;;;;;;;6.88;4.47;;;15.60;99.90;;;;;;6193512;23;20281;-88
2023/08/05 05:32:32;;;;;;;11.85;4.85;;;15.60;99.90;;;;;;6144472;23;20320;-88
2023/08/05 05:35:00;;;;;;;9.70;5.00;;;15.60;99.90;;;;;;6168719;23;20005;-90
2023/08/05 05:37:29;;;;;;;12.55;5.90;;;15.60;99.90;;;;;;6194090;23;20011;-88
2023/08/05 05:39:55;;;;;;;9.60;5.47;;;15.60;99.90;;;;;;6143996;23;20396;-88
2023/08/05 05:42:28;;;;;;;9.13;4.90;;;15.60;99.90;;;;;;6218167;23;20008;-89
2023/08/05 05:45:00;;;;;;;8.00;4.80;;;15.60;99.90;;;;;;6218413;23;20050;-88
2023/08/05 05:47:26;;;;;;;13.18;4.88;;;15.60;99.90;;;;;;6168260;23;20254;-88
2023/08/05 05:49:54;;;;;;;9.00;4.70;;;15.60;99.90;;;;;;6167997;23;20004;-89
2023/08/05 05:52:21;;;;;;;8.43;4.57;;;15.60;99.90;;;;;;6168620;23;20083;-89
2023/08/05 05:54:54;;;;;;;11.32;4.80;;;15.70;99.90;;;;;;6193214;23;20091;-88
2023/08/05 05:57:23;;;;;;;8.40;4.82;;;15.70;99.90;;;;;;6192128;23;20091;-89
2023/08/05 05:59:50;;;;;;;9.80;4.50;;;15.70;99.90;;;;;;6168146;23;20092;-88
2023/08/05 06:02:16;;;;;;;9.57;4.57;;;15.70;99.90;;;;;;6167624;23;20016;-88
2023/08/05 06:04:53;;;;;;;7.57;4.25;;;15.70;99.90;;;;;;6194406;23;20389;-89
2023/08/05 06:07:21;;;;;;;8.73;4.20;;;15.70;99.90;;;;;;6168012;23;20032;-89
2023/08/05 06:10:06;;;;;;;10.00;4.60;;;15.80;99.90;;;;;;6191862;23;20012;-93
2023/08/05 06:12:37;;;;;;;8.48;4.43;;;15.80;99.90;;;;;;6191005;23;20011;-91
2023/08/05 06:15:07;;;;;;;9.43;4.30;;;15.90;99.90;;;;;;6191497;23;20082;-90
2023/08/05 06:17:35;;;;;;;8.18;4.05;;;16.00;99.90;;;;;;6167123;23;20044;-91
2023/08/05 06:20:08;;;;;;;9.27;3.97;;;16.00;99.90;;;;;;6166810;23;20021;-91
2023/08/05 06:22:38;;;;;;;8.30;3.67;;;16.00;99.90;;;;;;6165588;23;20047;-91
2023/08/05 06:25:21;;;;;;;10.73;3.97;;;16.10;99.90;;;;;;6193852;23;20019;-92
2023/08/05 06:28:07;;;;;;;7.95;3.65;;;16.10;99.90;;;;;;6144486;23;20018;-93
2023/08/05 06:30:46;;;;;;;7.72;3.53;;;16.10;99.90;;;;;;6145492;23;20377;-91
2023/08/05 06:33:25;;;;;;;;;;;16.30;99.90;;;;;;6171454;23;20024;-92
2023/08/05 06:36:03;;;;;;;7.07;3.05;;;16.30;99.90;;;;;;6167351;23;19908;-92
2023/08/05 06:38:37;;;;;;;8.45;3.05;;;16.30;99.90;;;;;;6166805;23;20016;-92
2023/08/05 06:41:06;;;;;;;9.00;2.92;;;16.40;99.90;;;;;;6190429;23;20036;-90
2023/08/05 06:43:43;;;;;;;6.63;2.78;;;16.40;99.90;;;;;;6167432;23;20048;-90
2023/08/05 06:46:16;;;;;;;6.78;2.63;;;16.40;99.90;;;;;;6215478;23;20015;-88
2023/08/05 06:48:49;;;;;;;5.50;2.90;;;16.40;99.90;;;;;;6192233;23;20146;-89
2023/08/05 06:51:32;;;;;;;;;;;;;;;;;;;;;
2023/08/05 06:53:59;;;;;;;7.15;3.13;;;16.60;99.90;;;;;;6190529;23;20009;-88
2023/08/05 06:56:30;;;;;;;9.73;3.13;;;16.60;99.90;;;;;;6118743;23;20039;-89
2023/08/05 06:59:09;;;;;;;8.75;3.25;;;16.60;99.90;;;;;;6142767;23;20012;-91
2023/08/05 07:01:40;;;;;;;8.05;3.22;;;16.60;99.90;;;;;;6145555;23;20416;-89
2023/08/05 07:04:09;;;;;;;9.70;3.17;;;16.70;99.90;;;;;;6165613;23;20401;-88
2023/08/05 07:06:53;;;;;;;7.30;3.30;;;16.70;99.90;;;;;;6192510;23;20009;-89
2023/08/05 07:09:21;;;;;;;8.07;3.05;;;16.70;99.90;;;;;;6167536;23;20020;-91
2023/08/05 07:11:48;;;;;;;6.82;3.17;;;16.80;99.90;;;;;;6165747;23;20011;-89
2023/08/05 07:14:33;;;;;;;7.90;3.30;;;16.80;99.90;;;;;;6169713;23;20008;-88
2023/08/05 07:16:59;;;;;;;9.35;3.33;;;16.80;99.90;;;;;;6166929;23;20337;-88
2023/08/05 07:19:34;;;;;;;10.02;3.20;;;16.80;99.90;;;;;;6167924;23;20019;-88
2023/08/05 07:22:03;;;;;;;8.23;2.95;;;16.90;99.90;;;;;;6140786;23;20071;-89
2023/08/05 07:25:02;;;;;;;8.65;3.33;;;16.90;99.90;;;;;;6191073;23;20146;-90
2023/08/05 07:27:56;;;;;;;6.47;3.08;;;17.00;99.90;;;;;;6170024;23;20091;-88
2023/08/05 07:30:25;;;;;;;4.97;2.88;;;17.00;99.90;;;;;;6168223;23;20015;-90
2023/08/05 07:32:59;;;;;;;10.10;3.10;;;17.00;99.90;;;;;;6192029;23;20091;-93
2023/08/05 07:35:49;;;;;;;8.85;3.28;;;17.10;99.90;;;;;;6191353;23;20040;-89
2023/08/05 07:38:20;;;;;;;7.47;2.90;;;17.10;99.90;;;;;;6166268;23;20015;-90
2023/08/05 07:41:00;;;;;;;6.60;3.08;;;17.10;99.90;;;;;;6188626;23;20043;-91
2023/08/05 07:43:35;;;;;;;7.15;2.83;;;17.10;99.90;;;;;;6191308;23;20091;-90
2023/08/05 07:46:08;;;;;;;9.93;3.00;;;17.20;99.90;;;;;;6144637;23;20099;-90
2023/08/05 07:48:39;;;;;;;7.40;2.80;;;17.20;99.90;;;;;;6191556;23;20008;-90
2023/08/05 07:51:11;;;;;;;7.38;2.65;;;17.20;99.90;;;;;;6165970;23;20008;-91
2023/08/05 07:53:47;;;;;;;6.75;2.83;;;17.30;99.90;;;;;;6146260;23;20390;-90
2023/08/05 07:56:18;;;;;;;8.77;2.78;;;17.40;99.90;;;;;;6191392;23;20059;-91
2023/08/05 07:58:48;;;;;;;10.65;3.22;;;17.40;99.90;;;;;;6192875;23;20386;-90
2023/08/05 08:01:24;;;;;;;9.02;3.10;;;17.50;99.90;;;;;;6192408;23;20031;-91
2023/08/05 08:04:01;;;;;;;6.90;3.30;;;17.50;99.90;;;;;;6166263;23;20385;-90
2023/08/05 08:06:43;;;;;;;7.40;2.75;;;17.50;99.90;;;;;;6190311;23;20386;-90
2023/08/05 08:09:32;;;;;;;8.30;2.88;;;17.60;99.90;;;;;;6158202;23;20386;-91
2023/08/05 08:12:06;;;;;;;7.45;2.97;;;17.60;99.90;;;;;;6169845;23;20008;-89
2023/08/05 08:14:52;;;;;;;5.95;2.90;;;17.60;99.90;;;;;;6170274;23;20015;-90
2023/08/05 08:17:32;;;;;;;;;;;;;;;;;;;;;
2023/08/05 08:20:44;;;;;;;8.95;3.08;;;17.70;99.90;;;;;;6221213;23;20004;-88
2023/08/05 08:23:13;;;;;;;8.48;3.15;;;17.70;99.90;;;;;;6176197;23;20394;-88
2023/08/05 08:25:42;;;;;;;8.25;2.90;;;17.80;99.90;;;;;;6170789;23;20103;-88
2023/08/05 08:28:11;;;;;;;9.15;3.25;;;17.90;99.90;;;;;;6194008;23;20012;-88
2023/08/05 08:30:37;;;;;;;7.68;2.97;;;17.90;99.90;;;;;;6169740;23;20019;-88
2023/08/05 08:33:08;;;;;;;7.32;2.78;;;18.00;99.90;;;;;;6171015;23;20110;-88
2023/08/05 08:35:37;;;;;;;5.55;2.80;;;18.00;99.90;;;;;;6170260;23;20090;-88
2023/08/05 08:38:41;;;;;;;7.45;2.85;;;18.00;99.90;;;;;;6173663;23;20035;-88
2023/08/05 08:41:11;;;;;;;;;;;18.00;99.90;;;;;;6191479;23;20035;-87
2023/08/05 08:43:46;;;;;;;8.18;3.03;;;18.00;99.90;;;;;;6169824;23;19939;-88
2023/08/05 08:46:20;;;;;;;7.50;3.30;;;18.10;99.90;;;;;;6194654;23;20408;-89
2023/08/05 08:48:55;;;;;;;6.50;2.95;;;18.20;99.90;;;;;;6194341;23;20278;-87
2023/08/05 08:51:24;;;;;;;9.23;2.97;;;18.20;99.90;;;;;;6194189;23;20043;-89
2023/08/05 08:53:59;;;;;;;6.45;2.83;;;18.20;99.90;;;;;;6169663;23;20019;-89
2023/08/05 08:56:37;;;;;;;9.05;2.63;;;18.30;99.90;;;;;;6170935;23;20017;-88
2023/08/05 08:59:21;;;;;;;6.90;3.13;;;18.40;99.90;;;;;;6168065;23;20014;-89
2023/08/05 09:01:51;;;;;;;9.10;3.05;;;18.40;99.90;;;;;;6169604;23;20013;-87
2023/08/05 09:04:25;;;;;;;6.13;2.70;;;18.40;99.90;;;;;;6145533;23;20019;-88
2023/08/05 09:07:00;;;;;;;5.55;2.40;;;18.50;99.90;;;;;;6170475;23;20392;-87
2023/08/05 09:09:40;;;;;;;7.32;2.55;;;18.50;99.90;;;;;;6193470;23;20011;-87
2023/08/05 09:12:31;;;;;;;;;;;;;;;;;;;;;
2023/08/05 09:15:40;;;;;;;7.35;2.22;;;18.60;99.90;;;;;;6194276;23;20009;-88
2023/08/05 09:18:27;;;;;;;6.38;2.63;;;18.70;99.90;;;;;;6196514;23;20451;-88
2023/08/05 09:21:14;;;;;;;7.43;2.53;;;18.80;99.90;;;;;;6143272;23;20012;-88
2023/08/05 09:23:49;;;;;;;7.30;2.60;;;18.90;99.90;;;;;;6205179;23;20283;-87
2023/08/05 09:26:29;;;;;;;4.40;2.08;;;19.00;99.90;;;;;;6170100;23;20020;-91
2023/08/05 09:29:09;;;;;;;;;;;;;;;;;;;;;
2023/08/05 09:32:03;;;;;;;7.45;2.47;;;19.20;99.90;;;;;;6194713;23;20011;-90
2023/08/05 09:34:39;;;;;;;5.63;2.25;;;19.30;99.90;;;;;;6147251;23;20017;-89
2023/08/05 09:37:16;;;;;;;6.97;2.40;;;19.40;99.90;;;;;;6191913;23;20039;-91
2023/08/05 09:39:46;;;;;;;6.65;2.33;;;19.50;99.90;;;;;;6144840;23;20286;-90
2023/08/05 09:42:37;;;;;;;6.65;2.90;;;19.40;99.90;;;;;;6172144;23;20413;-89
2023/08/05 09:45:09;;;;;;;7.57;2.80;;;19.40;99.90;;;;;;6217271;23;20075;-91
2023/08/05 09:47:42;;;;;;;5.45;2.50;;;19.30;99.90;;;;;;6193522;23;20013;-91
2023/08/05 09:50:12;;;;;;;8.18;2.85;;;19.30;99.90;;;;;;6192428;23;20013;-89
2023/08/05 09:52:56;;;;;;;7.63;2.53;;;19.30;99.90;;;;;;6194546;23;20040;-89
2023/08/05 09:55:28;;;;;;;7.82;2.67;;;19.30;99.90;;;;;;6168967;23;20023;-89
2023/08/05 09:58:23;;;;;;;8.15;2.55;;;19.20;99.90;;;;;;6196512;23;20005;-89
2023/08/05 10:00:52;;;;;;;7.10;2.80;;;19.10;99.90;;;;;;6168014;23;20044;-90
2023/08/05 10:03:35;;;;;;;7.15;2.60;;;19.10;99.90;;;;;;6192069;23;20059;-90
2023/08/05 10:06:07;;;;;;;7.32;2.70;;;19.10;99.90;;;;;;6192524;23;20020;-89
2023/08/05 10:08:40;;;;;;;7.72;2.72;;;19.10;99.90;;;;;;6166535;23;20146;-92
2023/08/05 10:11:15;;;;;;;7.15;3.08;;;19.10;99.90;;;;;;6193147;23;20012;-89
2023/08/05 10:13:55;;;;;;;8.18;2.90;;;19.20;99.90;;;;;;6216837;23;20408;-87
2023/08/05 10:16:28;;;;;;;9.82;3.50;;;19.30;99.90;;;;;;6192260;23;20440;-88
2023/08/05 10:19:11;;;;;;;;;;;;;;;;;;;;;
2023/08/05 10:21:45;;;;;;;6.75;2.90;;;19.40;99.90;;;;;;6170347;23;20012;-89
2023/08/05 10:24:20;;;;;;;7.45;2.30;;;19.30;99.90;;;;;;6217880;23;20082;-88
2023/08/05 10:27:07;;;;;;;8.55;2.72;;;19.30;99.90;;;;;;6143254;23;20059;-86
2023/08/05 10:29:33;;;;;;;;;;;19.20;99.90;;;;;;6170901;23;20063;-89
2023/08/05 10:32:10;;;;;;;8.82;2.80;;;19.20;99.90;;;;;;6144164;23;19908;-89
2023/08/05 10:34:38;;;;;;;7.72;3.10;;;19.10;99.90;;;;;;6192354;23;20031;-88
2023/08/05 10:37:07;;;;;;;4.70;2.50;;;19.20;99.90;;;;;;6168890;23;20017;-88
2023/08/05 10:39:39;;;;;;;7.50;2.97;;;19.20;99.90;;;;;;6192481;23;20020;-88
2023/08/05 10:42:23;;;;;;;7.63;3.08;;;19.30;99.90;;;;;;6193032;23;20012;-89
2023/08/05 10:44:54;;;;;;;4.70;2.50;;;19.30;99.90;;;;;;6168245;23;20039;-88
2023/08/05 10:47:26;;;;;;;4.53;2.40;;;19.40;99.90;;;;;;6193725;23;20013;-88
2023/08/05 10:49:59;;;;;;;4.75;2.30;;;19.50;99.90;;;;;;6168265;23;20016;-88
2023/08/05 10:52:44;;;;;;;5.93;2.72;;;19.50;99.90;;;;;;6145793;23;20036;-88
2023/08/05 10:55:13;;;;;;;5.82;2.40;;;19.60;99.90;;;;;;6193250;23;20087;-88
2023/08/05 10:57:39;;;;;;;7.13;2.20;;;19.60;99.90;;;;;;6168060;23;20071;-89
2023/08/05 11:00:11;;;;;;;4.68;2.45;;;19.60;99.90;;;;;;6168227;23;20015;-88
2023/08/05 11:02:47;;;;;;;7.68;2.33;;;19.60;99.90;;;;;;6191879;23;20020;-89
2023/08/05 11:05:13;;;;;;;7.35;2.63;;;19.70;99.90;;;;;;6192610;23;20108;-91
2023/08/05 11:07:41;;;;;;;6.10;2.60;;;19.60;99.90;;;;;;6192503;23;20031;-90
2023/08/05 11:10:41;;;;;;;5.85;2.40;;;19.50;99.90;;;;;;6196887;23;20393;-91
2023/08/05 11:13:18;;;;;;;5.72;2.60;;;19.50;99.90;;;;;;6194918;23;20070;-92
2023/08/05 11:16:09;;;;;;;8.20;2.72;;;19.50;99.90;;;;;;6168026;23;20012;-90
2023/08/05 11:18:37;;;;;;;6.70;2.70;;;19.50;99.90;;;;;;6145591;23;20012;-92
2023/08/05 11:21:09;;;;;;;5.28;2.75;;;19.50;99.90;;;;;;6193487;23;20008;-90
2023/08/05 11:23:46;;;;;;;6.85;2.83;;;19.50;99.90;;;;;;6169057;23;20040;-92
2023/08/05 11:26:21;;;;;;;5.90;2.50;;;19.50;99.90;;;;;;6166914;23;20332;-91
2023/08/05 11:28:52;;;;;;;9.73;2.70;;;19.50;99.90;;;;;;6192531;23;20004;-93
2023/08/05 11:31:55;;;;;;;5.03;2.17;;;19.50;99.90;;;;;;6163432;23;20040;-91
2023/08/05 11:34:25;;;;;;;5.95;2.58;;;19.40;99.90;;;;;;6172079;23;20019;-94
2023/08/05 11:37:05;;;;;;;6.18;2.78;;;19.50;99.90;;;;;;6195190;23;20021;-94
2023/08/05 11:39:33;;;;;;;6.22;3.05;;;19.50;99.90;;;;;;6169534;23;20004;-93
2023/08/05 11:42:53;;;;;;;7.13;3.25;;;19.50;99.90;;;;;;6193965;23;20004;-93
2023/08/05 11:59:56;;;;;;;7.72;3.55;;;19.60;99.90;;;;;;6157732;23;20032;-93
2023/08/05 12:02:59;;;;;;;5.60;2.83;;;19.60;99.90;;;;;;6110336;23;20021;-94
2023/08/05 12:05:49;;;;;;;;;;;;;;;;;;;;;
2023/08/05 12:08:52;;;;;;;6.47;3.17;;;19.50;99.90;;;;;;6109206;23;20307;-92
2023/08/05 12:11:25;;;;;;;5.63;2.95;;;19.50;99.90;;;;;;6085600;23;20039;-94
2023/08/05 12:14:20;;;;;;;8.45;2.95;;;19.50;99.90;;;;;;6139710;23;20013;-93
2023/08/05 12:17:19;;;;;;;;;;;;;;;;;;;;;
2023/08/05 12:20:46;;;;;;;8.05;3.40;;;19.50;99.90;;;;;;6188215;23;20013;-95
2023/08/05 12:24:13;;;;;;;;;;;19.40;99.90;;;;;;6143477;23;20020;-96
2023/08/05 12:27:36;;;;;;;;;;;;;;;;;;;;;
2023/08/05 12:30:44;;;;;;;;;;;;;;;;;;;;;
2023/08/05 12:33:49;;;;;;;6.65;3.35;;;19.60;99.90;;;;;;6164497;23;20087;-94
2023/08/05 12:36:22;;;;;;;;;;;19.60;99.90;;;;;;6164649;23;20068;-92
2023/08/05 12:39:01;;;;;;;6.97;3.05;;;19.60;99.90;;;;;;6138773;23;19908;-94
2023/08/05 12:41:38;;;;;;;7.97;3.63;;;19.60;99.90;;;;;;6138880;23;20064;-90
2023/08/05 12:44:34;;;;;;;7.38;3.80;;;19.60;99.90;;;;;;6134954;23;20009;-93
2023/08/05 12:47:36;;;;;;;8.88;4.22;;;19.70;99.90;;;;;;6129219;23;20154;-93
2023/08/05 12:51:07;;;;;;;;;;;;;;;;;;;;;
2023/08/05 12:59:26;;;;;;;;;;;;;;;;;;;;;
2023/08/05 13:02:52;;;;;;;;;;;;;;;;;;;;;
2023/08/05 13:05:40;;;;;;;;;;;;;;;;;;;;;
2023/08/05 13:09:46;;;;;;;;;;;;;;;;;;;;;
2023/08/05 13:13:19;;;;;;;;;;;;;;;;;;;;;
2023/08/05 13:16:20;;;;;;;4.80;2.78;;;19.60;99.90;;;;;;6136296;23;20013;-95
2023/08/05 13:19:19;;;;;;;;;;;;;;;;;;;;;
2023/08/05 13:22:11;;;;;;;4.38;2.00;;;19.50;99.90;;;;;;6181899;23;20316;-93
2023/08/05 13:25:01;;;;;;;;;;;;;;;;;;;;;
2023/08/05 13:27:52;;;;;;;3.13;1.40;;;18.90;99.90;;;;;;6179477;23;20091;-95
2023/08/05 13:31:20;;;;;;;2.63;1.20;;;18.60;99.90;;;;;;6183404;23;20016;-96
2023/08/05 13:34:07;;;;;;;3.42;1.40;;;18.30;99.90;;;;;;6205767;23;20035;-95
2023/08/05 13:36:44;;;;;;;3.58;1.70;;;17.90;99.90;;;;;;6176666;23;20020;-93
2023/08/05 13:39:18;;;;;;;4.18;1.85;;;17.70;99.90;;;;;;6176566;23;20032;-94
2023/08/05 13:45:46;;;;;;;9.65;2.40;;;17.00;99.90;;;;;;6209949;23;20008;-93
2023/08/05 13:48:27;;;;;;;5.07;2.08;;;16.90;99.90;;;;;;6180653;23;20102;-91
2023/08/05 13:51:23;;;;;;;6.15;2.42;;;16.90;99.90;;;;;;6181278;23;20027;-93
2023/08/05 13:59:20;;;;;;;;;;;;;;;;;;;;;
2023/08/05 14:03:19;;;;;;;3.63;1.95;;;16.70;99.90;;;;;;6081579;23;20019;-93
2023/08/05 14:06:14;;;;;;;4.40;2.10;;;16.60;99.90;;;;;;6095313;23;20379;-93
2023/08/05 14:16:25;;;;;;;4.97;2.72;;;16.60;99.90;;;;;;6105959;23;20248;-94
2023/08/05 14:19:12;;;;;;;7.22;3.58;;;16.60;99.90;;;;;;6152958;23;20436;-94
2023/08/05 14:25:50;;;;;;;5.90;3.30;;;16.60;99.90;;;;;;6121494;23;20010;-94
2023/08/05 14:28:31;;;;;;;5.85;3.20;;;16.50;99.90;;;;;;6138049;23;20410;-92
2023/08/05 14:31:04;;;;;;;7.03;3.95;;;16.60;99.90;;;;;;6112677;23;20350;-92
2023/08/05 14:33:31;;;;;;;8.32;4.10;;;16.60;99.90;;;;;;6161791;23;20081;-92
2023/08/05 14:35:57;;;;;;;7.45;4.03;;;16.60;99.90;;;;;;6186333;23;20366;-90
2023/08/05 14:38:32;;;;;;;6.78;4.05;;;16.60;99.90;;;;;;6161546;23;20025;-91
2023/08/05 14:41:03;;;;;;;9.35;4.70;;;16.60;99.90;;;;;;6138357;23;20040;-91
2023/08/05 14:43:46;;;;;;;8.25;4.88;;;16.60;99.90;;;;;;6161722;23;20017;-93
2023/08/05 14:46:23;;;;;;;9.80;5.63;;;16.60;99.90;;;;;;6159029;23;20084;-93